sensor_id;sensor_type;location;lat;lon;timestamp;P1;durP1;ratioP1;P2;durP2;ratioP2
35757;SDS011;21879;50.110;18.900;2023-04-12T00:03:56;10.60;;;6.90;;
35757;SDS011;21879;50.110;18.900;2023-04-12T00:14:26;8.50;;;4.90;;
35757;SDS011;21879;50.110;18.900;2023-04-12T00:24:53;10.70;;;6.80;;
35757;SDS011;21879;50.110;18.900;2023-04-12T00:35:18;8.70;;;6.10;;
35757;SDS011;21879;50.110;18.900;2023-04-12T00:45:44;8.20;;;4.00;;
35757;SDS011;21879;50.110;18.900;2023-04-12T00:56:11;4.00;;;3.00;;
35757;SDS011;21879;50.110;18.900;2023-04-12T01:06:40;3.00;;;1.90;;
35757;SDS011;21879;50.110;18.900;2023-04-12T01:17:18;4.40;;;2.00;;
35757;SDS011;21879;50.110;18.900;2023-04-12T01:27:49;4.60;;;2.30;;
35757;SDS011;21879;50.110;18.900;2023-04-12T01:38:17;7.60;;;4.30;;
35757;SDS011;21879;50.110;18.900;2023-04-12T01:48:46;8.50;;;3.70;;
35757;SDS011;21879;50.110;18.900;2023-04-12T01:59:14;8.20;;;4.10;;
35757;SDS011;21879;50.110;18.900;2023-04-12T02:09:41;9.30;;;4.20;;
35757;SDS011;21879;50.110;18.900;2023-04-12T02:20:08;7.80;;;5.50;;
35757;SDS011;21879;50.110;18.900;2023-04-12T02:30:35;8.00;;;4.70;;
35757;SDS011;21879;50.110;18.900;2023-04-12T02:41:03;6.00;;;3.70;;
35757;SDS011;21879;50.110;18.900;2023-04-12T02:51:29;5.70;;;2.80;;
35757;SDS011;21879;50.110;18.900;2023-04-12T03:01:55;7.10;;;3.00;;
35757;SDS011;21879;50.110;18.900;2023-04-12T03:12:22;8.30;;;4.50;;
35757;SDS011;21879;50.110;18.900;2023-04-12T03:22:47;5.60;;;3.20;;
35757;SDS011;21879;50.110;18.900;2023-04-12T03:33:13;5.70;;;3.00;;
35757;SDS011;21879;50.110;18.900;2023-04-12T03:43:39;6.60;;;3.00;;
35757;SDS011;21879;50.110;18.900;2023-04-12T03:54:05;5.30;;;2.60;;
35757;SDS011;21879;50.110;18.900;2023-04-12T04:04:31;10.50;;;5.70;;
35757;SDS011;21879;50.110;18.900;2023-04-12T04:15:02;6.30;;;2.90;;
35757;SDS011;21879;50.110;18.900;2023-04-12T04:25:28;4.80;;;3.00;;
35757;SDS011;21879;50.110;18.900;2023-04-12T04:35:55;5.70;;;3.60;;
35757;SDS011;21879;50.110;18.900;2023-04-12T04:46:21;7.10;;;2.70;;
35757;SDS011;21879;50.110;18.900;2023-04-12T04:56:47;6.10;;;3.60;;
35757;SDS011;21879;50.110;18.900;2023-04-12T05:07:13;8.60;;;4.60;;
35757;SDS011;21879;50.110;18.900;2023-04-12T05:17:39;9.10;;;5.30;;
35757;SDS011;21879;50.110;18.900;2023-04-12T05:28:05;14.20;;;6.80;;
35757;SDS011;21879;50.110;18.900;2023-04-12T05:38:36;10.30;;;5.80;;
35757;SDS011;21879;50.110;18.900;2023-04-12T05:49:02;11.70;;;7.70;;
35757;SDS011;21879;50.110;18.900;2023-04-12T05:59:28;10.70;;;7.30;;
35757;SDS011;21879;50.110;18.900;2023-04-12T06:09:54;12.60;;;6.70;;
35757;SDS011;21879;50.110;18.900;2023-04-12T06:20:20;8.50;;;5.10;;
35757;SDS011;21879;50.110;18.900;2023-04-12T06:30:46;10.70;;;6.70;;
35757;SDS011;21879;50.110;18.900;2023-04-12T06:41:12;11.70;;;7.40;;
35757;SDS011;21879;50.110;18.900;2023-04-12T06:51:38;12.80;;;6.40;;
35757;SDS011;21879;50.110;18.900;2023-04-12T07:02:04;9.40;;;7.80;;
35757;SDS011;21879;50.110;18.900;2023-04-12T07:12:30;10.10;;;6.40;;
35757;SDS011;21879;50.110;18.900;2023-04-12T07:22:56;13.00;;;7.10;;
35757;SDS011;21879;50.110;18.900;2023-04-12T07:33:23;13.80;;;7.80;;
35757;SDS011;21879;50.110;18.900;2023-04-12T07:43:49;12.20;;;7.30;;
35757;SDS011;21879;50.110;18.900;2023-04-12T07:54:16;9.90;;;5.60;;
35757;SDS011;21879;50.110;18.900;2023-04-12T08:04:44;8.60;;;5.70;;
35757;SDS011;21879;50.110;18.900;2023-04-12T08:15:10;13.10;;;10.90;;
35757;SDS011;21879;50.110;18.900;2023-04-12T08:25:36;7.90;;;5.00;;
35757;SDS011;21879;50.110;18.900;2023-04-12T08:36:03;7.40;;;4.40;;
35757;SDS011;21879;50.110;18.900;2023-04-12T08:46:29;9.20;;;5.20;;
35757;SDS011;21879;50.110;18.900;2023-04-12T08:56:59;7.90;;;5.70;;
35757;SDS011;21879;50.110;18.900;2023-04-12T09:07:26;6.80;;;4.20;;
35757;SDS011;21879;50.110;18.900;2023-04-12T09:18:03;6.30;;;4.20;;
35757;SDS011;21879;50.110;18.900;2023-04-12T09:28:30;6.10;;;4.20;;
35757;SDS011;21879;50.110;18.900;2023-04-12T09:38:59;8.80;;;5.80;;
35757;SDS011;21879;50.110;18.900;2023-04-12T09:49:36;7.90;;;5.20;;
35757;SDS011;21879;50.110;18.900;2023-04-12T10:00:03;6.90;;;4.90;;
35757;SDS011;21879;50.110;18.900;2023-04-12T10:10:36;8.60;;;5.00;;
35757;SDS011;21879;50.110;18.900;2023-04-12T10:21:02;4.30;;;3.80;;
35757;SDS011;21879;50.110;18.900;2023-04-12T10:31:30;5.80;;;3.70;;
35757;SDS011;21879;50.110;18.900;2023-04-12T10:52:40;4.40;;;3.30;;
35757;SDS011;21879;50.110;18.900;2023-04-12T11:03:06;4.30;;;3.10;;
35757;SDS011;21879;50.110;18.900;2023-04-12T11:13:35;9.10;;;6.00;;
35757;SDS011;21879;50.110;18.900;2023-04-12T11:24:01;5.00;;;2.60;;
35757;SDS011;21879;50.110;18.900;2023-04-12T11:34:32;4.60;;;3.00;;
35757;SDS011;21879;50.110;18.900;2023-04-12T11:44:59;4.50;;;3.00;;
35757;SDS011;21879;50.110;18.900;2023-04-12T11:55:37;4.40;;;2.80;;
35757;SDS011;21879;50.110;18.900;2023-04-12T12:06:03;3.70;;;2.60;;
35757;SDS011;21879;50.110;18.900;2023-04-12T12:16:30;2.40;;;2.00;;
35757;SDS011;21879;50.110;18.900;2023-04-12T12:27:01;6.10;;;2.60;;
35757;SDS011;21879;50.110;18.900;2023-04-12T12:37:28;6.30;;;2.80;;
35757;SDS011;21879;50.110;18.900;2023-04-12T12:47:54;4.50;;;3.30;;
35757;SDS011;21879;50.110;18.900;2023-04-12T12:58:22;3.50;;;2.50;;
35757;SDS011;21879;50.110;18.900;2023-04-12T13:08:48;4.00;;;2.60;;
35757;SDS011;21879;50.110;18.900;2023-04-12T13:19:14;4.10;;;3.00;;
35757;SDS011;21879;50.110;18.900;2023-04-12T13:29:40;9.30;;;8.40;;
35757;SDS011;21879;50.110;18.900;2023-04-12T13:40:07;4.70;;;3.80;;
35757;SDS011;21879;50.110;18.900;2023-04-12T13:50:33;3.80;;;2.80;;
35757;SDS011;21879;50.110;18.900;2023-04-12T14:00:59;4.90;;;3.60;;
35757;SDS011;21879;50.110;18.900;2023-04-12T14:11:25;3.80;;;2.80;;
35757;SDS011;21879;50.110;18.900;2023-04-12T14:21:51;3.40;;;3.00;;
35757;SDS011;21879;50.110;18.900;2023-04-12T14:32:18;4.50;;;3.10;;
35757;SDS011;21879;50.110;18.900;2023-04-12T14:42:44;6.20;;;3.90;;
35757;SDS011;21879;50.110;18.900;2023-04-12T14:53:10;4.50;;;2.70;;
35757;SDS011;21879;50.110;18.900;2023-04-12T15:03:38;3.70;;;2.20;;
35757;SDS011;21879;50.110;18.900;2023-04-12T15:14:04;4.90;;;2.30;;
35757;SDS011;21879;50.110;18.900;2023-04-12T15:24:30;2.70;;;1.70;;
35757;SDS011;21879;50.110;18.900;2023-04-12T15:34:56;4.50;;;2.10;;
35757;SDS011;21879;50.110;18.900;2023-04-12T15:45:26;3.50;;;1.80;;
35757;SDS011;21879;50.110;18.900;2023-04-12T15:55:52;3.50;;;1.90;;
35757;SDS011;21879;50.110;18.900;2023-04-12T16:06:19;4.70;;;1.80;;
35757;SDS011;21879;50.110;18.900;2023-04-12T16:16:47;8.80;;;4.60;;
35757;SDS011;21879;50.110;18.900;2023-04-12T16:27:13;6.00;;;4.00;;
35757;SDS011;21879;50.110;18.900;2023-04-12T16:37:39;3.20;;;2.80;;
35757;SDS011;21879;50.110;18.900;2023-04-12T16:48:05;4.00;;;2.50;;
35757;SDS011;21879;50.110;18.900;2023-04-12T16:58:31;5.80;;;2.90;;
35757;SDS011;21879;50.110;18.900;2023-04-12T17:08:56;5.00;;;2.70;;
35757;SDS011;21879;50.110;18.900;2023-04-12T17:19:22;2.40;;;1.60;;
35757;SDS011;21879;50.110;18.900;2023-04-12T17:29:48;3.50;;;1.50;;
35757;SDS011;21879;50.110;18.900;2023-04-12T17:40:16;2.30;;;2.00;;
35757;SDS011;21879;50.110;18.900;2023-04-12T17:50:42;4.80;;;1.80;;
35757;SDS011;21879;50.110;18.900;2023-04-12T18:01:09;2.80;;;1.90;;
35757;SDS011;21879;50.110;18.900;2023-04-12T18:11:35;4.30;;;3.00;;
35757;SDS011;21879;50.110;18.900;2023-04-12T18:22:01;4.80;;;2.80;;
35757;SDS011;21879;50.110;18.900;2023-04-12T18:32:27;3.90;;;3.20;;
35757;SDS011;21879;50.110;18.900;2023-04-12T18:42:53;4.40;;;3.30;;
35757;SDS011;21879;50.110;18.900;2023-04-12T18:53:20;3.80;;;2.40;;
35757;SDS011;21879;50.110;18.900;2023-04-12T19:03:46;5.60;;;2.70;;
35757;SDS011;21879;50.110;18.900;2023-04-12T19:14:13;7.10;;;3.40;;
35757;SDS011;21879;50.110;18.900;2023-04-12T19:24:39;6.90;;;3.60;;
35757;SDS011;21879;50.110;18.900;2023-04-12T19:35:06;9.00;;;4.50;;
35757;SDS011;21879;50.110;18.900;2023-04-12T19:45:33;5.60;;;4.20;;
35757;SDS011;21879;50.110;18.900;2023-04-12T19:55:59;8.10;;;5.50;;
35757;SDS011;21879;50.110;18.900;2023-04-12T20:06:28;8.40;;;4.80;;
35757;SDS011;21879;50.110;18.900;2023-04-12T20:16:54;10.50;;;6.60;;
35757;SDS011;21879;50.110;18.900;2023-04-12T20:27:19;19.70;;;12.10;;
35757;SDS011;21879;50.110;18.900;2023-04-12T20:37:46;26.20;;;14.90;;
35757;SDS011;21879;50.110;18.900;2023-04-12T20:48:13;15.80;;;9.80;;
35757;SDS011;21879;50.110;18.900;2023-04-12T20:58:39;9.90;;;6.50;;
35757;SDS011;21879;50.110;18.900;2023-04-12T21:09:06;15.70;;;8.20;;
35757;SDS011;21879;50.110;18.900;2023-04-12T21:19:32;12.90;;;8.70;;
35757;SDS011;21879;50.110;18.900;2023-04-12T21:30:03;13.00;;;7.30;;
35757;SDS011;21879;50.110;18.900;2023-04-12T21:50:55;16.00;;;12.10;;
35757;SDS011;21879;50.110;18.900;2023-04-12T22:01:21;20.70;;;14.20;;
35757;SDS011;21879;50.110;18.900;2023-04-12T22:11:47;18.70;;;13.10;;
35757;SDS011;21879;50.110;18.900;2023-04-12T22:22:13;20.10;;;11.10;;
35757;SDS011;21879;50.110;18.900;2023-04-12T22:32:39;16.20;;;9.10;;
35757;SDS011;21879;50.110;18.900;2023-04-12T22:43:05;16.00;;;10.00;;
35757;SDS011;21879;50.110;18.900;2023-04-12T22:53:39;16.80;;;9.90;;
35757;SDS011;21879;50.110;18.900;2023-04-12T23:04:06;13.90;;;9.20;;
35757;SDS011;21879;50.110;18.900;2023-04-12T23:14:33;17.20;;;11.50;;
35757;SDS011;21879;50.110;18.900;2023-04-12T23:25:00;13.40;;;8.80;;
35757;SDS011;21879;50.110;18.900;2023-04-12T23:35:27;20.20;;;12.10;;
35757;SDS011;21879;50.110;18.900;2023-04-12T23:45:53;28.40;;;18.60;;
35757;SDS011;21879;50.110;18.900;2023-04-12T23:56:19;21.40;;;14.20;;
